Time;durP1;ratioP1;P1;durP2;ratioP2;P2;SDS_P1;SDS_P2;PMS_P1;PMS_P2;Temp;Humidity;BMP_temperature;BMP_pressure;BME280_temperature;BME280_humidity;BME280_pressure;Samples;Min_cycle;Max_cycle;Signal;HPM_P1;HPM_P2
2019/05/18 08:59:29;;;;;;;6;3.1;;;;;;;22.61;52.15723;950.5571;;;;
2019/05/18 09:01:55;;;;;;;5.7;3.1;;;;;;;22.5;52.49219;950.485;;;;
2019/05/18 09:04:20;;;;;;;5;3.2;;;;;;;23.33;50.58594;950.5122;;;;
2019/05/18 09:06:45;;;;;;;6.7;3.1;;;;;;;23.92;48.66895;950.5001;;;;
2019/05/18 09:09:12;;;;;;;5.9;2.8;;;;;;;25.45;45.25391;950.4709;;;;
2019/05/18 09:11:37;;;;;;;905.1;361.3;;;;;;;24.82;45.80469;950.5036;;;;
2019/05/18 10:38:14;;;;;;;12.1;10.6;;;;;;;19.35;50.45508;950.5452;;;;
2019/05/18 10:40:45;;;;;;;12.5;11.3;;;;;;;19.54;48.85742;950.4564;;;;
2019/05/18 10:43:10;;;;;;;12;10.7;;;;;;;19.54;49.46484;950.4813;;;;
2019/05/18 10:45:37;;;;;;;12.2;10.9;;;;;;;19.05;49.84961;950.5019;;;;
2019/05/18 10:48:02;;;;;;;10.7;9.6;;;;;;;19.5;50.45996;950.4618;;;;
2019/05/18 10:50:33;;;;;;;11.3;10.2;;;;;;;19.54;48.42871;950.4472;;;;
2019/05/18 10:52:57;;;;;;;11.3;10.1;;;;;;;19.59;48.26758;950.4166;;;;
2019/05/18 10:55:23;;;;;;;10.8;9.7;;;;;;;20.06;47.1748;950.3641;;;;
2019/05/18 10:57:48;;;;;;;10.1;8.9;;;;;;;20.56;48.51758;950.2902;;;;
2019/05/18 11:00:13;;;;;;;11.4;10.2;;;;;;;20.25;47.39844;950.2941;;;;
2019/05/18 11:02:38;;;;;;;10.1;9.1;;;;;;;20.49;46.18359;950.2473;;;;
2019/05/18 11:05:04;;;;;;;9.7;8.7;;;;;;;20.45;46.69336;950.2922;;;;
2019/05/18 11:07:30;;;;;;;11.5;8.8;;;;;;;20.48;46.6709;950.2449;;;;
2019/05/18 11:09:55;;;;;;;10.4;9.3;;;;;;;20.87;45.18457;950.1345;;;;
2019/05/18 11:12:20;;;;;;;11.6;8.8;;;;;;;21.22;44.75488;950.145;;;;
2019/05/18 11:14:45;;;;;;;9.8;8.1;;;;;;;21.24;45.25879;950.1445;;;;
2019/05/18 11:17:12;;;;;;;11.6;8.7;;;;;;;21.31;44.25;950.1055;;;;
2019/05/18 11:19:37;;;;;;;11.9;9.9;;;;;;;21.41;44.02148;950.1177;;;;
2019/05/18 11:22:03;;;;;;;11.8;7.8;;;;;;;20.88;45.53125;950.1241;;;;
2019/05/18 11:24:28;;;;;;;10.6;8.4;;;;;;;21;44.48242;950.0829;;;;
2019/05/18 11:26:53;;;;;;;9.6;8.6;;;;;;;20.44;45.52246;950.0793;;;;
2019/05/18 11:29:20;;;;;;;8.5;7.5;;;;;;;20.66;45.25879;950.1013;;;;
2019/05/18 11:31:46;;;;;;;11.2;8.2;;;;;;;21.07;45.63477;950.0494;;;;
2019/05/18 11:34:12;;;;;;;9.3;7.9;;;;;;;21.64;42.30957;950.0619;;;;
2019/05/18 11:36:37;;;;;;;10.6;7.8;;;;;;;22.29;42.62305;950.1074;;;;
2019/05/18 11:39:04;;;;;;;8.5;7.2;;;;;;;22.61;40.16113;949.9938;;;;
2019/05/18 11:41:36;;;;;;;8.9;6.4;;;;;;;23.04;39.92383;949.9253;;;;
2019/05/18 11:44:02;;;;;;;7.5;6.8;;;;;;;23.35;40.26465;949.9966;;;;
2019/05/18 11:46:27;;;;;;;11.1;7.2;;;;;;;23.48;40.64844;949.9581;;;;
2019/05/18 11:48:52;;;;;;;8.2;6.6;;;;;;;23.62;37.46484;949.9236;;;;
2019/05/18 11:51:17;;;;;;;6.1;5.5;;;;;;;23.82;35.64355;949.9099;;;;
2019/05/18 11:53:44;;;;;;;8.1;6.7;;;;;;;23.62;37.80176;949.9011;;;;
2019/05/18 11:56:09;;;;;;;9.1;7.3;;;;;;;23.6;37.06738;949.8564;;;;
2019/05/18 11:58:37;;;;;;;7.7;7;;;;;;;23.66;39.10254;949.8884;;;;
2019/05/18 12:01:13;;;;;;;7.5;6.3;;;;;;;23.14;38.99707;949.9114;;;;
2019/05/18 12:03:38;;;;;;;6.1;5.5;;;;;;;22.95;38.0918;949.8861;;;;
2019/05/18 12:06:11;;;;;;;8;5.9;;;;;;;23.26;36.73926;949.8783;;;;
2019/05/18 12:08:37;;;;;;;7;6.3;;;;;;;22.7;37.18359;949.9023;;;;
2019/05/18 12:11:02;;;;;;;7.2;5.7;;;;;;;23.48;37.24902;949.8842;;;;
2019/05/18 12:13:28;;;;;;;8.8;5.7;;;;;;;23.26;38.70703;949.8837;;;;
2019/05/18 12:15:52;;;;;;;7.3;5.4;;;;;;;23.14;36.42871;949.836;;;;
2019/05/18 12:18:19;;;;;;;6.9;5.8;;;;;;;23.84;37.58008;949.8448;;;;
2019/05/18 12:20:44;;;;;;;6;5.4;;;;;;;24.41;36.14844;949.8127;;;;
2019/05/18 12:23:13;;;;;;;8;5.6;;;;;;;24.5;35.57715;949.8039;;;;
2019/05/18 12:25:39;;;;;;;7.6;5.7;;;;;;;23.98;35.67969;949.8365;;;;
2019/05/18 12:28:04;;;;;;;6.7;5.6;;;;;;;23.41;36.42773;949.8276;;;;
2019/05/18 12:30:29;;;;;;;5.9;5.1;;;;;;;22.95;36.58203;949.8504;;;;
2019/05/18 12:32:54;;;;;;;6.9;5.1;;;;;;;23.3;36.83789;949.8577;;;;
2019/05/18 12:35:19;;;;;;;5.6;5.1;;;;;;;23.59;37.23438;949.7654;;;;
2019/05/18 12:37:56;;;;;;;7.6;6.5;;;;;;;23.68;38.02246;949.6967;;;;
2019/05/18 12:40:29;;;;;;;6.8;5.3;;;;;;;24.25;37.62695;949.6459;;;;
2019/05/18 12:42:54;;;;;;;5.9;5.1;;;;;;;24.18;34.87793;949.6727;;;;
2019/05/18 12:45:21;;;;;;;7;6.3;;;;;;;23.31;36.88672;949.7453;;;;
2019/05/18 12:48:00;;;;;;;8.9;6;;;;;;;23.34;36.57715;949.6653;;;;
2019/05/18 12:50:25;;;;;;;5.1;4.6;;;;;;;22.34;36.98633;949.5792;;;;
2019/05/18 12:52:51;;;;;;;5.1;4.6;;;;;;;22.82;36.33105;949.6599;;;;
2019/05/18 12:55:16;;;;;;;6.6;4.7;;;;;;;23.09;36.19629;949.5545;;;;
2019/05/18 12:57:42;;;;;;;9.2;4.5;;;;;;;23.34;35.91699;949.5506;;;;
2019/05/18 13:00:08;;;;;;;5.7;4;;;;;;;24.15;37.93066;949.5425;;;;
2019/05/18 13:02:53;;;;;;;6.6;3.7;;;;;;;24.94;36.79297;949.4783;;;;
2019/05/18 13:05:19;;;;;;;4.2;3.7;;;;;;;24.95;34.54102;949.4925;;;;
2019/05/18 13:07:44;;;;;;;7.1;3.4;;;;;;;25.26;33.07031;949.4785;;;;
2019/05/18 13:10:21;;;;;;;3.5;3.2;;;;;;;25.48;31.71094;949.4389;;;;
2019/05/18 13:12:56;;;;;;;4;3.1;;;;;;;24.96;30.34863;949.4418;;;;
2019/05/18 13:15:21;;;;;;;3.7;3.4;;;;;;;24.58;32.57422;949.4166;;;;
2019/05/18 13:17:47;;;;;;;4.1;3.5;;;;;;;24.81;31.98828;949.4119;;;;
2019/05/18 13:20:16;;;;;;;5.2;3.8;;;;;;;23.79;32.69727;949.4456;;;;
2019/05/18 13:22:46;;;;;;;4.5;3.4;;;;;;;24.66;32.51953;949.3787;;;;
2019/05/18 13:25:11;;;;;;;4.9;3;;;;;;;24.6;32.45508;949.4095;;;;
2019/05/18 13:27:41;;;;;;;5;3.7;;;;;;;24.16;32.47168;949.3281;;;;
2019/05/18 13:30:28;;;;;;;5.1;3.3;;;;;;;24.38;33.53418;949.3515;;;;
2019/05/18 13:32:56;;;;;;;4.3;3.6;;;;;;;24.48;33.04785;949.2791;;;;
2019/05/18 13:35:18;;;;;;;6;3.6;;;;;;;24.41;33.36816;949.3061;;;;
2019/05/18 13:37:43;;;;;;;5.1;3.8;;;;;;;24.41;33.15234;949.3045;;;;
2019/05/18 13:40:08;;;;;;;3.9;3.2;;;;;;;24.6;33.70801;949.2584;;;;
2019/05/18 13:42:34;;;;;;;4;3.6;;;;;;;24.41;32.46582;949.2213;;;;
2019/05/18 13:44:59;;;;;;;8;4.1;;;;;;;23.6;34.28027;949.2619;;;;
2019/05/18 13:47:25;;;;;;;4.8;3.4;;;;;;;23.06;33.97461;949.2303;;;;
2019/05/18 13:49:50;;;;;;;5.1;3.1;;;;;;;22.77;34.81543;949.2822;;;;
2019/05/18 13:52:17;;;;;;;5;2.9;;;;;;;23.46;33.92188;949.2625;;;;
2019/05/18 13:54:42;;;;;;;5.5;3.1;;;;;;;23.16;33.70703;949.2244;;;;
2019/05/18 13:57:07;;;;;;;4.8;3.7;;;;;;;23.64;33.17871;949.1831;;;;
2019/05/18 13:59:32;;;;;;;5.6;3.3;;;;;;;23.69;33.65039;949.1611;;;;
2019/05/18 14:01:57;;;;;;;4.9;3.4;;;;;;;23.61;33.2002;949.1682;;;;
2019/05/18 14:04:31;;;;;;;4.3;3;;;;;;;23.43;33.03027;949.1154;;;;
2019/05/18 14:06:56;;;;;;;5.5;2.6;;;;;;;23.18;34.32031;949.1498;;;;
2019/05/18 14:09:25;;;;;;;4;2.1;;;;;;;23.72;31.94727;949.0494;;;;
2019/05/18 14:12:07;;;;;;;2.7;2.1;;;;;;;23.22;32.64258;949.1121;;;;
2019/05/18 14:14:32;;;;;;;5.1;2.9;;;;;;;23.75;33.00586;949.017;;;;
2019/05/18 14:17:00;;;;;;;2.8;1.8;;;;;;;24.29;31.07422;948.9886;;;;
2019/05/18 14:19:32;;;;;;;6.7;2.2;;;;;;;24.83;31.8457;948.9385;;;;
2019/05/18 14:22:02;;;;;;;6.9;2.4;;;;;;;24.98;31.49512;949.0097;;;;
2019/05/18 14:24:27;;;;;;;4.5;2.5;;;;;;;24.34;31.77441;948.9833;;;;
2019/05/18 14:26:54;;;;;;;5;2.7;;;;;;;24.12;32.88965;949.0142;;;;
2019/05/18 14:29:20;;;;;;;4.4;2.8;;;;;;;24.09;34.01758;949.0244;;;;
2019/05/18 14:31:46;;;;;;;4.4;2.5;;;;;;;23.55;32.46289;949.0347;;;;
2019/05/18 14:34:11;;;;;;;4.2;2.9;;;;;;;23.29;33.52441;949.0366;;;;
2019/05/18 14:36:45;;;;;;;4.1;3.6;;;;;;;23.04;34.11719;949.0447;;;;
2019/05/18 14:39:10;;;;;;;4.4;3.6;;;;;;;22.96;34.75879;949.0437;;;;
2019/05/18 14:41:36;;;;;;;4.6;3.2;;;;;;;23.84;33.12207;948.9949;;;;
2019/05/18 14:44:01;;;;;;;8.5;3.5;;;;;;;23.96;32.54102;949.0158;;;;
2019/05/18 14:46:26;;;;;;;4.3;3.1;;;;;;;24.41;32.58594;949.015;;;;
2019/05/18 14:48:52;;;;;;;4.8;3.5;;;;;;;24.44;31.04785;949.0261;;;;
2019/05/18 14:51:17;;;;;;;4.1;3.3;;;;;;;24.54;30.70508;949.0156;;;;
2019/05/18 14:53:42;;;;;;;3.1;2.7;;;;;;;24.49;30.71484;948.9888;;;;
2019/05/18 14:56:07;;;;;;;3.9;2.8;;;;;;;23.84;30.69336;949.0571;;;;
2019/05/18 14:58:32;;;;;;;4.5;2.6;;;;;;;24.01;31.06641;948.9695;;;;
2019/05/18 15:00:57;;;;;;;2.8;2.4;;;;;;;24.33;31.29297;948.981;;;;
2019/05/18 15:03:22;;;;;;;3.6;2.8;;;;;;;24.02;29.80469;948.9812;;;;
2019/05/18 15:05:48;;;;;;;4.5;3;;;;;;;23.73;30.86621;949.0253;;;;
2019/05/18 15:08:13;;;;;;;5.4;2.9;;;;;;;23.82;31.2207;949.158;;;;
2019/05/18 15:10:38;;;;;;;3.1;2.1;;;;;;;24.39;28.85449;949.063;;;;
2019/05/18 15:13:03;;;;;;;4.5;2.3;;;;;;;24.69;29.52344;949.0433;;;;
2019/05/18 15:15:29;;;;;;;2.6;2.1;;;;;;;24.86;28.71582;949.0303;;;;
2019/05/18 15:17:57;;;;;;;4;3.4;;;;;;;24.79;29.50684;949.0254;;;;
2019/05/18 15:20:23;;;;;;;4.1;3.3;;;;;;;23.86;30.74316;949.0302;;;;
2019/05/18 15:22:58;;;;;;;3.6;3.2;;;;;;;23.16;31.89551;949.0659;;;;
2019/05/18 15:25:25;;;;;;;5.2;3.3;;;;;;;23.27;32.39453;949.028;;;;
2019/05/18 15:27:52;;;;;;;11;3.5;;;;;;;23.85;32.76074;948.9747;;;;
2019/05/18 15:30:17;;;;;;;4.3;3.2;;;;;;;23.92;33.75195;948.8741;;;;
2019/05/18 15:32:55;;;;;;;5.4;3.7;;;;;;;24.15;31.58105;948.9078;;;;
2019/05/18 15:35:20;;;;;;;7;6.3;;;;;;;24.28;31.04883;948.8594;;;;
2019/05/18 15:37:45;;;;;;;6.7;3.7;;;;;;;23.94;32.05859;948.8338;;;;
2019/05/18 15:40:10;;;;;;;4.1;3.4;;;;;;;24.42;30.32422;948.8795;;;;
2019/05/18 15:42:35;;;;;;;4.3;3.4;;;;;;;24.42;30.55273;948.8889;;;;
2019/05/18 15:45:00;;;;;;;6.2;3.3;;;;;;;23.71;31.2373;948.8789;;;;
2019/05/18 15:47:26;;;;;;;7.3;5.3;;;;;;;23.2;31.64551;948.8681;;;;
2019/05/18 15:49:51;;;;;;;9;7;;;;;;;23.11;31.83203;948.8897;;;;
2019/05/18 15:52:16;;;;;;;8.7;7.1;;;;;;;22.85;31.96777;948.8793;;;;
2019/05/18 15:54:41;;;;;;;9.1;7.7;;;;;;;22.91;31.80469;948.8717;;;;
2019/05/18 15:57:06;;;;;;;6.1;4.8;;;;;;;23.15;31.49805;948.8826;;;;
2019/05/18 15:59:31;;;;;;;5;2.7;;;;;;;23.4;30.95215;948.9084;;;;
2019/05/18 16:01:56;;;;;;;4.8;2.7;;;;;;;23.7;31.22461;948.8937;;;;
2019/05/18 16:04:24;;;;;;;3.4;2.7;;;;;;;23.64;30.7998;948.8489;;;;
2019/05/18 16:06:49;;;;;;;3.4;2.5;;;;;;;24.21;30.0332;948.8164;;;;
2019/05/18 16:09:20;;;;;;;2.5;2.2;;;;;;;24.95;28.90234;948.7791;;;;
2019/05/18 16:11:46;;;;;;;3.7;2.2;;;;;;;25.3;28.11816;948.7911;;;;
2019/05/18 16:14:15;;;;;;;2.6;2.2;;;;;;;25.63;26.5332;948.8033;;;;
2019/05/18 16:17:03;;;;;;;3.6;2.1;;;;;;;25.45;26.54688;948.8276;;;;
2019/05/18 16:19:28;;;;;;;5.2;2.3;;;;;;;25.43;26.24414;948.8267;;;;
2019/05/18 16:21:53;;;;;;;4.9;1.9;;;;;;;25.17;27.12109;948.8003;;;;
2019/05/18 16:24:20;;;;;;;3;1.9;;;;;;;25.14;27.13086;948.7444;;;;
2019/05/18 16:26:45;;;;;;;4.3;2.2;;;;;;;24.49;28.41504;948.739;;;;
2019/05/18 16:29:10;;;;;;;4.2;1.9;;;;;;;24.02;30.65723;948.7658;;;;
2019/05/18 16:31:41;;;;;;;4.7;2.9;;;;;;;23.56;30.50586;948.7726;;;;
2019/05/18 16:34:06;;;;;;;4.7;3.6;;;;;;;23.43;31.31445;948.7836;;;;
2019/05/18 16:36:31;;;;;;;6;3.8;;;;;;;23.43;30.35352;948.7704;;;;
2019/05/18 16:38:56;;;;;;;4;2.6;;;;;;;23.04;30.27832;948.7806;;;;
2019/05/18 16:41:22;;;;;;;4.1;3.1;;;;;;;22.81;31.41504;948.851;;;;
2019/05/18 16:43:51;;;;;;;3.7;2.4;;;;;;;22.93;31.51855;948.8503;;;;
2019/05/18 16:46:16;;;;;;;7.3;3.2;;;;;;;23.13;31.78418;948.8209;;;;
2019/05/18 16:48:41;;;;;;;3.1;2.5;;;;;;;23.01;31.75195;948.8184;;;;
2019/05/18 16:51:06;;;;;;;3.8;3;;;;;;;22.98;31.46191;948.8506;;;;
2019/05/18 16:53:31;;;;;;;4.7;3;;;;;;;22.25;32.35645;948.8015;;;;
2019/05/18 16:55:56;;;;;;;3.9;2.5;;;;;;;22.2;32.74707;948.8064;;;;
2019/05/18 16:58:21;;;;;;;6.2;2.4;;;;;;;22.23;32.54688;948.8177;;;;
2019/05/18 17:00:46;;;;;;;4.7;2.3;;;;;;;21.92;33.625;948.8505;;;;
2019/05/18 17:03:11;;;;;;;6.1;2.4;;;;;;;21.71;33.46484;948.8331;;;;
2019/05/18 17:05:37;;;;;;;2.5;1.9;;;;;;;21.87;32.61621;948.8422;;;;
2019/05/18 17:08:02;;;;;;;3.1;2.1;;;;;;;21.89;32.43848;948.834;;;;
2019/05/18 17:10:27;;;;;;;2.8;2;;;;;;;22.1;32.29688;948.8777;;;;
2019/05/18 17:12:57;;;;;;;4;2.1;;;;;;;22.13;32.06055;948.9115;;;;
2019/05/18 17:15:22;;;;;;;3.2;2.1;;;;;;;21.77;32.28613;948.9217;;;;
2019/05/18 17:17:47;;;;;;;3.7;2.1;;;;;;;21.69;32.4707;948.9071;;;;
2019/05/18 17:20:13;;;;;;;2.8;2.3;;;;;;;21.59;32.72656;948.926;;;;
2019/05/18 17:22:39;;;;;;;8.1;5.3;;;;;;;21.56;32.86816;948.962;;;;
2019/05/18 17:25:04;;;;;;;5.6;4.5;;;;;;;21.64;33.53125;948.9739;;;;
2019/05/18 17:27:30;;;;;;;3.7;2.5;;;;;;;21.41;33.43066;948.9249;;;;
2019/05/18 17:29:55;;;;;;;3;2.3;;;;;;;21.38;33.48828;948.9685;;;;
2019/05/18 17:32:20;;;;;;;4.9;3.2;;;;;;;21.5;33.78418;948.9021;;;;
2019/05/18 17:34:46;;;;;;;5.3;3.1;;;;;;;21.6;33.5166;948.8758;;;;
2019/05/18 17:37:20;;;;;;;6.1;4.2;;;;;;;21.67;34.16797;948.9063;;;;
2019/05/18 17:39:51;;;;;;;7.5;5.5;;;;;;;21.62;34.71387;948.9162;;;;
2019/05/18 17:42:16;;;;;;;7.6;4.8;;;;;;;21.39;34.21875;948.8524;;;;
2019/05/18 17:44:41;;;;;;;8;5.5;;;;;;;21.19;33.58203;948.9157;;;;
2019/05/18 17:47:06;;;;;;;11.1;7.5;;;;;;;21.08;33.77637;948.9069;;;;
2019/05/18 17:49:31;;;;;;;13.5;8.9;;;;;;;21.2;34.15527;948.9328;;;;
2019/05/18 17:51:57;;;;;;;11.2;8.4;;;;;;;21.01;34.42773;948.884;;;;
2019/05/18 17:54:22;;;;;;;19.4;10.5;;;;;;;20.75;34.66992;948.9191;;;;
2019/05/18 17:56:47;;;;;;;14.8;9.1;;;;;;;20.69;34.77246;948.9;;;;
2019/05/18 17:59:12;;;;;;;7.2;5.6;;;;;;;20.82;35.04492;948.8499;;;;
2019/05/18 18:01:37;;;;;;;4.8;2.6;;;;;;;20.73;34.9668;948.901;;;;
2019/05/18 18:04:12;;;;;;;3.6;2.1;;;;;;;20.58;34.93066;948.9686;;;;
2019/05/18 18:06:51;;;;;;;4.4;2.1;;;;;;;20.62;35.75781;948.93;;;;
2019/05/18 18:09:16;;;;;;;4;2.4;;;;;;;20.42;36.4209;948.9266;;;;
2019/05/18 18:11:41;;;;;;;5.1;2.7;;;;;;;20.34;36.41406;948.9459;;;;
2019/05/18 18:14:16;;;;;;;5.7;2.5;;;;;;;20.18;37.27148;949.037;;;;
2019/05/18 18:16:42;;;;;;;4.7;2.7;;;;;;;20.11;37.9209;949.0179;;;;
2019/05/18 18:19:08;;;;;;;5.5;2.7;;;;;;;20.01;38.78223;949.0675;;;;
2019/05/18 18:21:34;;;;;;;7.1;2.8;;;;;;;19.91;40.15527;949.0331;;;;
2019/05/18 18:23:59;;;;;;;5.9;2.7;;;;;;;19.77;40.14258;949.054;;;;
2019/05/18 18:26:24;;;;;;;5.4;2.6;;;;;;;19.71;40.39844;949.0726;;;;
2019/05/18 18:29:04;;;;;;;4.9;2.9;;;;;;;19.59;40.8877;949.1378;;;;
2019/05/18 18:31:29;;;;;;;5.1;3.2;;;;;;;19.57;41.56543;949.1498;;;;
2019/05/18 18:34:02;;;;;;;4.1;2.9;;;;;;;19.51;41.45215;949.1923;;;;
2019/05/18 18:36:27;;;;;;;4.7;3;;;;;;;19.43;41.95605;949.2361;;;;
2019/05/18 18:38:55;;;;;;;5.2;3.1;;;;;;;19.35;42.55566;949.2196;;;;
2019/05/18 18:41:38;;;;;;;6.6;4.2;;;;;;;19.32;42.5293;949.225;;;;
2019/05/18 18:44:04;;;;;;;6.4;4.4;;;;;;;19.21;43.96875;949.193;;;;
2019/05/18 18:46:37;;;;;;;7.6;3.6;;;;;;;19.23;42.98242;949.2203;;;;
2019/05/18 18:49:03;;;;;;;6.6;2.8;;;;;;;19.1;43.17285;949.204;;;;
2019/05/18 18:51:28;;;;;;;10.1;3.6;;;;;;;19.03;44.41406;949.2255;;;;
2019/05/18 18:53:53;;;;;;;4.4;3.3;;;;;;;18.99;45.02832;949.2322;;;;
2019/05/18 18:56:19;;;;;;;7.6;4.5;;;;;;;19.01;43.90137;949.202;;;;
2019/05/18 18:58:49;;;;;;;9.6;5.6;;;;;;;18.93;44.90332;949.2599;;;;
2019/05/18 19:01:15;;;;;;;6.7;4;;;;;;;18.89;44.19824;949.3362;;;;
2019/05/18 19:03:40;;;;;;;9.1;5.1;;;;;;;18.83;44.34668;949.3078;;;;
2019/05/18 19:06:05;;;;;;;8.8;4.7;;;;;;;18.77;44.61426;949.3539;;;;
2019/05/18 19:08:30;;;;;;;10.4;5.7;;;;;;;18.64;45.14746;949.3974;;;;
2019/05/18 19:10:55;;;;;;;9.3;6.1;;;;;;;18.66;45.07813;949.3801;;;;
2019/05/18 19:14:52;;;;;;;9.4;7.2;;;;;;;18.59;45.96191;949.4275;;;;
2019/05/18 19:18:01;;;;;;;8.3;5.4;;;;;;;18.49;45.54688;949.4504;;;;
2019/05/18 19:21:11;;;;;;;6.4;4.6;;;;;;;18.44;45.61426;949.5067;;;;
2019/05/18 19:24:21;;;;;;;8.1;5.7;;;;;;;18.43;45.625;949.5658;;;;
2019/05/18 19:27:30;;;;;;;6.2;3.4;;;;;;;18.36;45.6875;949.6;;;;
2019/05/18 19:30:39;;;;;;;5.3;3.3;;;;;;;18.35;45.73438;949.6537;;;;
2019/05/18 19:33:49;;;;;;;4.9;3;;;;;;;18.3;45.82422;949.6317;;;;
2019/05/18 19:36:58;;;;;;;6.3;3.3;;;;;;;18.36;45.94922;949.6786;;;;
2019/05/18 19:40:08;;;;;;;6;2.6;;;;;;;18.38;45.47656;949.6262;;;;
2019/05/18 19:43:18;;;;;;;6;2.9;;;;;;;18.22;46.07617;949.6368;;;;
2019/05/18 19:46:27;;;;;;;7.7;3.1;;;;;;;18.29;45.87109;949.7429;;;;
2019/05/18 19:49:37;;;;;;;4.8;3.1;;;;;;;18.22;45.91113;949.7455;;;;
2019/05/18 19:52:46;;;;;;;11.3;6.7;;;;;;;17.86;46.83398;949.8337;;;;
2019/05/18 19:55:11;;;;;;;4.2;3.1;;;;;;;17.66;47.08594;949.8801;;;;
2019/05/18 19:57:41;;;;;;;6.5;3.1;;;;;;;17.46;47.95215;949.8486;;;;
2019/05/18 20:00:06;;;;;;;5.1;3;;;;;;;17.37;48.36914;949.8513;;;;
2019/05/18 20:02:36;;;;;;;5.5;3.2;;;;;;;17.18;49.18945;949.9528;;;;
2019/05/18 20:05:01;;;;;;;4.6;3.3;;;;;;;17.15;49.51563;949.8847;;;;
2019/05/18 20:07:27;;;;;;;4.9;3.6;;;;;;;16.92;50.4248;949.9885;;;;
2019/05/18 20:09:53;;;;;;;6;3.8;;;;;;;16.72;51.28906;949.995;;;;
2019/05/18 20:12:18;;;;;;;4;3.2;;;;;;;16.79;51.34375;950.0361;;;;
2019/05/18 20:14:44;;;;;;;3.7;3.1;;;;;;;16.56;52.34668;950.0347;;;;
2019/05/18 20:17:09;;;;;;;4.3;3.1;;;;;;;16.74;51.91895;950.0085;;;;
2019/05/18 20:19:35;;;;;;;5.8;3.3;;;;;;;16.83;51.8584;950.0192;;;;
2019/05/18 20:22:00;;;;;;;5.1;3.5;;;;;;;16.78;52.12402;950.0466;;;;
2019/05/18 20:24:28;;;;;;;6.7;3.4;;;;;;;16.76;52.34668;950.053;;;;
2019/05/18 20:26:53;;;;;;;6.4;3.8;;;;;;;16.57;52.96289;950.1013;;;;
2019/05/18 20:29:18;;;;;;;6.5;4;;;;;;;16.53;53.18262;950.1038;;;;
2019/05/18 20:31:44;;;;;;;5.6;3.7;;;;;;;16.52;53.23926;950.0541;;;;
2019/05/18 20:34:09;;;;;;;4.4;3.5;;;;;;;16.6;53.36719;950.0493;;;;
2019/05/18 20:36:35;;;;;;;4.3;3.8;;;;;;;16.66;53.01953;950.0615;;;;
2019/05/18 20:39:00;;;;;;;8.5;4.2;;;;;;;16.55;53.91895;950.0961;;;;
2019/05/18 20:41:26;;;;;;;4.9;3.9;;;;;;;16.41;53.62793;950.0717;;;;
2019/05/18 20:44:03;;;;;;;5.4;4;;;;;;;16.56;53.59961;950.0347;;;;
2019/05/18 20:46:40;;;;;;;5;3.4;;;;;;;16.49;53.95703;950.0198;;;;
2019/05/18 20:49:05;;;;;;;7.3;3.8;;;;;;;16.45;54.1416;950.0341;;;;
2019/05/18 20:51:30;;;;;;;6.4;3.7;;;;;;;16.27;54.49707;950.0289;;;;
2019/05/18 20:53:55;;;;;;;6.5;4;;;;;;;16.45;54.22363;950.0223;;;;
2019/05/18 20:56:20;;;;;;;7.9;4.4;;;;;;;16.36;54.46094;949.967;;;;
2019/05/18 20:59:40;;;;;;;7;4.4;;;;;;;16.46;54.48438;950.038;;;;
2019/05/18 21:02:50;;;;;;;5.9;4.6;;;;;;;16.39;54.85547;949.9617;;;;
2019/05/18 21:05:15;;;;;;;7.8;4.6;;;;;;;16.21;55.43555;950.03;;;;
2019/05/18 21:07:40;;;;;;;11.4;4.9;;;;;;;15.97;56.14746;950.0215;;;;
2019/05/18 21:10:14;;;;;;;10.1;6.1;;;;;;;16.11;55.6123;949.9548;;;;
2019/05/18 21:12:40;;;;;;;10.1;5.6;;;;;;;16.06;55.81738;949.8853;;;;
2019/05/18 21:15:06;;;;;;;7.8;5.1;;;;;;;15.93;56.12109;949.9625;;;;
2019/05/18 21:17:34;;;;;;;7.5;5.5;;;;;;;15.99;55.77344;949.9279;;;;
2019/05/18 21:19:56;;;;;;;10.8;7.9;;;;;;;15.97;55.86426;949.9355;;;;
2019/05/18 21:22:21;;;;;;;8.6;6.5;;;;;;;15.79;56.08984;949.9288;;;;
2019/05/18 21:24:46;;;;;;;17.9;12.2;;;;;;;15.95;56.01563;949.908;;;;
2019/05/18 21:27:12;;;;;;;9.6;7;;;;;;;15.88;56.01855;949.9061;;;;
2019/05/18 21:29:37;;;;;;;15.4;10.8;;;;;;;15.94;55.91992;949.8398;;;;
2019/05/18 21:32:03;;;;;;;16.4;10.8;;;;;;;15.86;56.09863;949.8524;;;;
2019/05/18 21:34:28;;;;;;;17.6;11.5;;;;;;;15.72;56.48145;949.8237;;;;
2019/05/18 21:36:53;;;;;;;15.7;10;;;;;;;15.83;56.2002;949.805;;;;
2019/05/18 21:39:18;;;;;;;11.6;8.9;;;;;;;15.84;56.41504;949.7858;;;;
2019/05/18 21:41:43;;;;;;;9.8;5.5;;;;;;;15.68;56.70117;949.8337;;;;
2019/05/18 21:44:08;;;;;;;7.4;5.8;;;;;;;15.72;56.59961;949.7324;;;;
2019/05/18 21:46:34;;;;;;;10.3;6.2;;;;;;;15.62;57.23633;949.8345;;;;
2019/05/18 21:49:00;;;;;;;5.9;3.8;;;;;;;15.45;57.73242;949.8667;;;;
2019/05/18 21:51:28;;;;;;;5.4;4.2;;;;;;;15.48;57.91309;949.8097;;;;
2019/05/18 21:54:02;;;;;;;4;3.4;;;;;;;15.56;57.39258;949.8234;;;;
2019/05/18 21:56:29;;;;;;;4.3;3.8;;;;;;;15.62;57.11816;949.8475;;;;
2019/05/18 21:58:54;;;;;;;3.7;3.2;;;;;;;15.54;57.4248;949.7438;;;;
2019/05/18 22:01:31;;;;;;;3.5;3.2;;;;;;;15.66;57.0752;949.7164;;;;
2019/05/18 22:04:09;;;;;;;4.2;3.5;;;;;;;15.59;57.21973;949.7311;;;;
2019/05/18 22:06:50;;;;;;;6;3.4;;;;;;;15.54;57.30664;949.6355;;;;
2019/05/18 22:09:20;;;;;;;4.1;3.4;;;;;;;15.61;57.19922;949.6322;;;;
2019/05/18 22:11:49;;;;;;;4.4;3.5;;;;;;;15.4;57.87891;949.6824;;;;
2019/05/18 22:14:34;;;;;;;3.8;3.4;;;;;;;15.42;57.90527;949.6277;;;;
2019/05/18 22:17:00;;;;;;;3.7;3.4;;;;;;;15.38;58.03027;949.6469;;;;
2019/05/18 22:19:31;;;;;;;5;3.2;;;;;;;15.46;57.8877;949.6257;;;;
2019/05/18 22:21:56;;;;;;;3.8;3.2;;;;;;;15.41;57.96289;949.625;;;;
2019/05/18 22:24:22;;;;;;;4.1;3.7;;;;;;;15.31;58.48047;949.6412;;;;
2019/05/18 22:26:47;;;;;;;4;3.6;;;;;;;15.21;58.67871;949.6624;;;;
2019/05/18 22:29:12;;;;;;;4.6;3.5;;;;;;;15.08;59.21582;949.6687;;;;
2019/05/18 22:31:37;;;;;;;3.9;3.5;;;;;;;15.14;59.19922;949.6772;;;;
2019/05/18 22:34:02;;;;;;;4.8;3.6;;;;;;;15.04;59.43359;949.6539;;;;
2019/05/18 22:36:28;;;;;;;4.2;3.6;;;;;;;14.93;59.78418;949.6188;;;;
2019/05/18 22:38:53;;;;;;;5.1;3.6;;;;;;;14.87;59.94141;949.5675;;;;
2019/05/18 22:41:18;;;;;;;4.9;3.7;;;;;;;14.86;59.98535;949.618;;;;
2019/05/18 22:43:43;;;;;;;4.2;3.8;;;;;;;14.81;60.43848;949.5341;;;;
2019/05/18 22:46:08;;;;;;;4.2;3.8;;;;;;;14.87;60.05859;949.5375;;;;
2019/05/18 22:48:34;;;;;;;4.4;4;;;;;;;14.85;60.30273;949.5228;;;;
2019/05/18 22:51:01;;;;;;;4.2;3.8;;;;;;;14.85;60.30273;949.5541;;;;
2019/05/18 22:53:26;;;;;;;4.7;4.1;;;;;;;14.71;60.64844;949.4586;;;;
2019/05/18 22:55:52;;;;;;;5.8;4;;;;;;;14.71;60.77832;949.4196;;;;
2019/05/18 22:58:17;;;;;;;4.6;4.1;;;;;;;14.51;61.46777;949.4511;;;;
2019/05/18 23:00:42;;;;;;;4.6;4.1;;;;;;;14.48;61.76953;949.4425;;;;
2019/05/18 23:03:07;;;;;;;5.4;4.3;;;;;;;14.52;61.57422;949.4107;;;;
2019/05/18 23:05:32;;;;;;;5;4.5;;;;;;;14.54;61.97754;949.3773;;;;
2019/05/18 23:07:57;;;;;;;5.5;4.2;;;;;;;14.46;61.97754;949.3812;;;;
2019/05/18 23:10:22;;;;;;;5.4;4.4;;;;;;;14.63;61.49609;949.3365;;;;
2019/05/18 23:12:49;;;;;;;6.9;4.6;;;;;;;14.38;62.38965;949.2982;;;;
2019/05/18 23:15:14;;;;;;;7.3;4.8;;;;;;;14.32;62.60449;949.2817;;;;
2019/05/18 23:17:41;;;;;;;6.4;4.3;;;;;;;14.29;62.64746;949.2813;;;;
2019/05/18 23:20:07;;;;;;;5.8;4.6;;;;;;;14.14;63.22656;949.261;;;;
2019/05/18 23:22:32;;;;;;;7.3;5.1;;;;;;;14.1;63.54785;949.1602;;;;
2019/05/18 23:24:57;;;;;;;5.6;4.9;;;;;;;14.13;63.74121;949.2194;;;;
2019/05/18 23:27:23;;;;;;;9.6;5;;;;;;;14.15;63.70996;949.2559;;;;
2019/05/18 23:29:48;;;;;;;5.8;5;;;;;;;14.1;63.52441;949.2683;;;;
2019/05/18 23:32:13;;;;;;;5.7;5.2;;;;;;;13.99;64.00293;949.2068;;;;
2019/05/18 23:34:39;;;;;;;6.7;5.5;;;;;;;13.98;64.13184;949.1951;;;;
2019/05/18 23:37:04;;;;;;;6.2;5.4;;;;;;;13.86;64.48828;949.2623;;;;
2019/05/18 23:39:30;;;;;;;6.6;5.5;;;;;;;13.78;64.74707;949.2011;;;;
2019/05/18 23:41:55;;;;;;;7.5;5.7;;;;;;;13.76;64.7793;949.1476;;;;
2019/05/18 23:44:20;;;;;;;7;6;;;;;;;13.71;64.87891;949.2198;;;;
2019/05/18 23:46:46;;;;;;;6.7;6;;;;;;;13.7;65.15918;949.1561;;;;
2019/05/18 23:49:11;;;;;;;6.7;6;;;;;;;13.7;65.27637;949.1561;;;;
2019/05/18 23:51:38;;;;;;;7.4;6;;;;;;;13.79;64.73633;949.2302;;;;
2019/05/18 23:54:03;;;;;;;6.7;5.7;;;;;;;13.68;65.57813;949.1777;;;;
2019/05/18 23:56:28;;;;;;;8.1;6.1;;;;;;;13.66;65.37598;949.1708;;;;
2019/05/18 23:58:54;;;;;;;7.4;5.8;;;;;;;13.75;64.68457;949.188;;;;
